createdAt,value
2022-08-12T00:02:02.144Z,100530.78
2022-08-12T00:03:46.188Z,100537.88
2022-08-12T00:05:57.166Z,100535.03
2022-08-12T00:08:07.776Z,100536.16
2022-08-12T00:10:10.157Z,100540.31
2022-08-12T00:12:12.475Z,100536.63
2022-08-12T00:14:15.112Z,100516.84
2022-08-12T00:16:19.616Z,100537.88
2022-08-12T00:18:22.037Z,100539.59
2022-08-12T00:20:24.755Z,100538.47
2022-08-12T00:22:33.822Z,100531.25
2022-08-12T00:24:38.446Z,100540.00
2022-08-12T00:26:44.066Z,100529.13
2022-08-12T00:28:46.576Z,100536.84
2022-08-12T00:30:49.297Z,100530.72
2022-08-12T00:32:54.704Z,100535.41
2022-08-12T00:35:00.417Z,100505.16
2022-08-12T00:37:13.329Z,100524.97
2022-08-12T00:39:17.024Z,100518.34
2022-08-12T00:41:20.758Z,100503.47
2022-08-12T00:43:26.145Z,100520.47
2022-08-12T00:45:28.556Z,100509.19
2022-08-12T00:47:33.185Z,100526.06
2022-08-12T00:49:36.196Z,100516.19
2022-08-12T00:51:40.677Z,100514.56
2022-08-12T00:53:43.626Z,100495.94
2022-08-12T00:55:46.176Z,100516.72
2022-08-12T00:57:50.997Z,100520.25
2022-08-12T01:00:00.128Z,100517.56
2022-08-12T01:02:11.664Z,100515.56
2022-08-12T01:04:20.552Z,100507.13
2022-08-12T01:06:24.444Z,100516.81
2022-08-12T01:08:26.732Z,100511.25
2022-08-12T01:10:34.211Z,100492.06
2022-08-12T01:12:39.443Z,100494.22
2022-08-12T01:14:43.899Z,100518.03
2022-08-12T01:16:47.616Z,100506.06
2022-08-12T01:18:55.778Z,100522.19
2022-08-12T01:21:25.898Z,100531.47
2022-08-12T01:23:44.838Z,100527.34
2022-08-12T01:25:55.580Z,100523.50
2022-08-12T01:27:58.991Z,100519.25
2022-08-12T01:30:09.663Z,100519.81
2022-08-12T01:32:15.221Z,100529.50
2022-08-12T01:34:35.797Z,100519.25
2022-08-12T01:36:47.125Z,100519.56
2022-08-12T01:38:51.759Z,100520.41
2022-08-12T01:40:55.737Z,100511.28
2022-08-12T01:43:05.856Z,100522.91
2022-08-12T01:45:10.635Z,100529.88
2022-08-12T01:47:41.785Z,100538.44
2022-08-12T01:49:53.655Z,100536.16
2022-08-12T01:52:21.551Z,100537.13
2022-08-12T01:54:27.807Z,100537.13
2022-08-12T01:56:40.656Z,100534.63
2022-08-12T01:58:44.216Z,100530.66
2022-08-12T02:00:57.744Z,100534.91
2022-08-12T02:03:23.016Z,100533.69
2022-08-12T02:05:50.155Z,100527.88
2022-08-12T02:08:14.687Z,100533.16
2022-08-12T02:10:50.004Z,100535.00
2022-08-12T02:13:12.376Z,100524.59
2022-08-12T02:15:27.654Z,100533.69
2022-08-12T02:18:03.288Z,100520.25
2022-08-12T02:20:35.139Z,100519.16
2022-08-12T02:22:52.456Z,100510.91
2022-08-12T02:25:18.155Z,100513.06
2022-08-12T02:27:22.328Z,100508.81
2022-08-12T02:29:25.615Z,100518.34
2022-08-12T02:31:29.655Z,100513.19
2022-08-12T02:33:36.375Z,100516.19
2022-08-12T02:35:38.945Z,100506.53
2022-08-12T02:37:43.895Z,100518.03
2022-08-12T02:39:49.348Z,100507.72
2022-08-12T02:41:54.974Z,100509.88
2022-08-12T02:44:00.748Z,100493.09
2022-08-12T02:46:15.204Z,100501.50
2022-08-12T02:48:28.475Z,100506.50
2022-08-12T02:50:34.931Z,100506.78
2022-08-12T02:52:37.837Z,100505.94
2022-08-12T02:54:46.015Z,100508.34
2022-08-12T02:56:51.118Z,100491.97
2022-08-12T02:58:54.755Z,100500.25
2022-08-12T03:00:59.556Z,100481.19
2022-08-12T03:03:07.175Z,100489.88
2022-08-12T03:05:13.582Z,100492.81
2022-08-12T03:07:56.315Z,100499.13
2022-08-12T03:10:15.809Z,100498.59
2022-08-12T03:12:21.438Z,100497.38
2022-08-12T03:14:28.670Z,100493.56
2022-08-12T03:16:33.073Z,100489.31
2022-08-12T03:18:37.115Z,100487.31
2022-08-12T03:20:39.447Z,100495.13
2022-08-12T03:22:44.456Z,100493.28
2022-08-12T03:24:51.316Z,100505.84
2022-08-12T03:27:00.515Z,100512.09
2022-08-12T03:29:06.356Z,100516.34
2022-08-12T03:31:10.677Z,100502.25
2022-08-12T03:33:14.657Z,100498.41
2022-08-12T03:35:39.998Z,100515.63
2022-08-12T03:37:45.894Z,100514.06
2022-08-12T03:39:48.623Z,100517.03
2022-08-12T03:42:09.981Z,100523.50
2022-08-12T03:44:25.720Z,100514.88
2022-08-12T03:46:34.705Z,100505.03
2022-08-12T03:48:37.015Z,100512.13
2022-08-12T03:50:40.294Z,100505.53
2022-08-12T03:52:42.854Z,100510.19
2022-08-12T03:54:45.255Z,100505.81
2022-08-12T03:56:48.018Z,100518.28
2022-08-12T03:58:50.466Z,100510.91
2022-08-12T04:00:52.972Z,100516.25
2022-08-12T04:02:56.976Z,100518.44
2022-08-12T04:04:59.395Z,100502.53
2022-08-12T04:07:08.052Z,100516.13
2022-08-12T04:09:16.140Z,100525.81
2022-08-12T04:11:19.675Z,100515.59
2022-08-12T04:13:22.654Z,100530.53
2022-08-12T04:15:26.935Z,100532.19
2022-08-12T04:17:29.976Z,100529.91
2022-08-12T04:19:34.664Z,100532.59
2022-08-12T04:21:42.096Z,100539.84
2022-08-12T04:24:02.817Z,100536.38
2022-08-12T04:26:06.715Z,100541.22
2022-08-12T04:28:14.097Z,100545.72
2022-08-12T04:30:32.063Z,100549.56
2022-08-12T04:32:39.610Z,100543.19
2022-08-12T04:34:47.014Z,100534.19
2022-08-12T04:36:49.582Z,100525.53
2022-08-12T04:38:56.489Z,100536.53
2022-08-12T04:41:03.527Z,100543.28
2022-08-12T04:43:06.316Z,100539.69
2022-08-12T04:45:30.410Z,100535.03
2022-08-12T04:47:33.556Z,100534.34
2022-08-12T04:49:36.464Z,100534.53
2022-08-12T04:51:40.015Z,100534.88
2022-08-12T04:53:43.574Z,100527.22
2022-08-12T04:55:46.076Z,100529.66
2022-08-12T04:57:48.340Z,100526.66
2022-08-12T04:59:50.806Z,100522.06
2022-08-12T05:01:54.038Z,100524.47
2022-08-12T05:03:58.615Z,100522.78
2022-08-12T05:06:02.757Z,100501.91
2022-08-12T05:08:10.175Z,100517.44
2022-08-12T05:10:12.954Z,100505.00
2022-08-12T05:12:18.835Z,100515.25
2022-08-12T05:14:21.395Z,100510.59
2022-08-12T05:16:30.791Z,100519.81
2022-08-12T05:18:39.736Z,100505.09
2022-08-12T05:20:42.696Z,100506.50
2022-08-12T05:22:46.179Z,100510.91
2022-08-12T05:24:49.816Z,100512.78
2022-08-12T05:26:52.215Z,100495.75
2022-08-12T05:28:54.557Z,100491.97
2022-08-12T05:30:59.143Z,100497.94
2022-08-12T05:33:04.078Z,100492.19
2022-08-12T05:35:08.996Z,100495.63
2022-08-12T05:37:11.875Z,100503.19
2022-08-12T05:39:14.551Z,100500.22
2022-08-12T05:41:16.916Z,100498.41
2022-08-12T05:43:21.255Z,100500.44
2022-08-12T05:45:23.655Z,100497.47
2022-08-12T05:47:38.485Z,100500.69
2022-08-12T05:49:48.556Z,100494.47
2022-08-12T05:51:51.175Z,100499.63
2022-08-12T05:53:56.476Z,100499.31
2022-08-12T05:56:00.715Z,100493.34
2022-08-12T05:58:05.105Z,100502.56
2022-08-12T06:00:08.244Z,100492.44
2022-08-12T06:02:14.121Z,100510.09
2022-08-12T06:04:16.455Z,100516.41
2022-08-12T06:06:22.337Z,100513.28
2022-08-12T06:08:25.657Z,100504.75
2022-08-12T06:10:32.180Z,100514.06
2022-08-12T06:12:35.056Z,100500.66
2022-08-12T06:14:39.050Z,100513.31
2022-08-12T06:16:42.017Z,100515.56
2022-08-12T06:18:45.298Z,100521.63
2022-08-12T06:20:48.355Z,100513.16
2022-08-12T06:22:51.159Z,100498.22
2022-08-12T06:24:57.057Z,100524.16
2022-08-12T06:26:59.595Z,100524.31
2022-08-12T06:29:02.043Z,100502.91
2022-08-12T06:33:57.632Z,100508.44
2022-08-12T06:35:50.423Z,100517.00
2022-08-12T06:37:56.490Z,100501.84
2022-08-12T06:40:03.581Z,100506.53
2022-08-12T06:42:33.180Z,100519.47
2022-08-12T06:44:29.325Z,100508.44
2022-08-12T06:46:31.867Z,100495.31
2022-08-12T06:48:34.120Z,100508.19
2022-08-12T06:50:39.951Z,100504.06
2022-08-12T06:52:44.395Z,100508.72
2022-08-12T06:54:46.646Z,100482.78
2022-08-12T06:58:06.986Z,100504.13
2022-08-12T06:59:11.464Z,100509.91
2022-08-12T07:01:16.084Z,100480.38
2022-08-12T07:03:23.046Z,100503.97
2022-08-12T07:05:27.433Z,100502.84
2022-08-12T07:07:29.874Z,100502.16
2022-08-12T07:10:07.088Z,100490.75
2022-08-12T07:11:59.583Z,100498.03
2022-08-12T07:14:13.044Z,100483.22
2022-08-12T07:16:18.273Z,100486.22
2022-08-12T07:18:21.793Z,100486.66
2022-08-12T07:20:50.801Z,100460.41
2022-08-12T07:22:48.453Z,100477.63
2022-08-12T07:24:54.483Z,100483.03
2022-08-12T07:26:57.045Z,100459.16
2022-08-12T07:29:01.103Z,100480.91
2022-08-12T07:31:19.144Z,100487.03
2022-08-12T07:33:30.003Z,100483.63
2022-08-12T07:35:40.562Z,100476.84
2022-08-12T07:37:44.524Z,100455.41
2022-08-12T07:39:50.592Z,100486.94
2022-08-12T07:42:23.023Z,100479.22
2022-08-12T07:44:51.668Z,100481.75
2022-08-12T07:46:55.694Z,100481.56
2022-08-12T07:49:08.417Z,100484.78
2022-08-12T07:51:12.463Z,100474.91
2022-08-12T07:53:27.893Z,100478.59
2022-08-12T07:55:30.135Z,100472.25
2022-08-12T07:57:33.124Z,100480.13
2022-08-12T07:59:35.273Z,100483.94
2022-08-12T08:01:38.818Z,100481.97
2022-08-12T08:03:51.564Z,100475.78
2022-08-12T08:05:58.884Z,100475.88
2022-08-12T08:08:18.206Z,100453.53
2022-08-12T08:10:21.110Z,100462.78
2022-08-12T08:12:54.102Z,100470.00
2022-08-12T08:14:56.628Z,100470.09
2022-08-12T08:17:02.024Z,100480.47
2022-08-12T08:19:14.334Z,100460.75
2022-08-12T08:21:16.964Z,100450.59
2022-08-12T08:23:19.443Z,100454.44
2022-08-12T08:25:36.221Z,100450.94
2022-08-12T08:27:44.603Z,100463.84
2022-08-12T08:29:49.542Z,100476.53
2022-08-12T08:31:53.234Z,100472.59
2022-08-12T08:34:09.533Z,100468.06
2022-08-12T08:36:23.974Z,100468.94
2022-08-12T08:38:32.640Z,100477.34
2022-08-12T08:40:40.413Z,100473.94
2022-08-12T08:42:51.483Z,100464.28
2022-08-12T08:44:57.936Z,100469.63
2022-08-12T08:47:07.051Z,100473.78
2022-08-12T08:49:17.969Z,100478.34
2022-08-12T08:51:36.299Z,100472.56
2022-08-12T08:53:52.754Z,100474.44
2022-08-12T08:56:20.828Z,100468.59
2022-08-12T08:58:32.864Z,100453.22
2022-08-12T09:00:39.133Z,100477.00
2022-08-12T09:04:21.345Z,100477.84
2022-08-12T09:06:02.907Z,100476.50
2022-08-12T09:08:22.422Z,100469.97
2022-08-12T09:11:01.733Z,100454.72
2022-08-12T09:14:10.707Z,100455.78
2022-08-12T09:20:50.685Z,100471.97
2022-08-12T09:26:22.557Z,100455.09
2022-08-12T09:28:53.035Z,100453.13
2022-08-12T09:30:59.053Z,100473.56
2022-08-12T09:33:14.304Z,100463.78
2022-08-12T09:35:28.264Z,100470.28
2022-08-12T09:37:55.172Z,100475.63
2022-08-12T09:40:05.845Z,100440.59
2022-08-12T09:42:42.984Z,100444.63
2022-08-12T09:45:18.277Z,100461.59
2022-08-12T09:47:14.877Z,100434.94
2022-08-12T09:49:18.317Z,100431.53
2022-08-12T09:51:38.385Z,100442.66
2022-08-12T09:53:46.498Z,100423.53
2022-08-12T09:56:58.902Z,100440.91
2022-08-12T09:58:57.280Z,100424.41
2022-08-12T10:00:54.243Z,100433.06
2022-08-12T10:03:08.887Z,100426.19
2022-08-12T10:08:30.825Z,100414.75
2022-08-12T10:10:42.836Z,100430.53
2022-08-12T10:13:06.818Z,100430.78
2022-08-12T10:15:15.380Z,100412.25
2022-08-12T10:17:33.602Z,100423.75
2022-08-12T10:19:38.806Z,100437.66
2022-08-12T10:21:45.707Z,100415.47
2022-08-12T10:23:57.887Z,100426.22
2022-08-12T10:26:34.651Z,100427.31
2022-08-12T10:28:25.337Z,100424.66
2022-08-12T10:30:41.646Z,100406.44
2022-08-12T10:32:56.146Z,100418.19
2022-08-12T10:34:59.647Z,100400.75
2022-08-12T10:38:36.043Z,100408.09
2022-08-12T10:40:06.192Z,100411.00
2022-08-12T10:42:18.382Z,100395.88
2022-08-12T10:44:32.265Z,100390.81
2022-08-12T10:46:39.494Z,100387.38
2022-08-12T10:48:58.082Z,100400.16
2022-08-12T10:52:04.525Z,100412.38
2022-08-12T10:53:43.954Z,100381.00
2022-08-12T10:55:56.050Z,100401.28
2022-08-12T10:58:27.989Z,100385.66
2022-08-12T11:00:34.631Z,100391.59
2022-08-12T11:04:18.439Z,100393.69
2022-08-12T11:07:06.571Z,100392.25
2022-08-12T11:08:33.860Z,100377.25
2022-08-12T11:10:01.565Z,100388.28
2022-08-12T11:12:55.254Z,100374.66
2022-08-12T11:14:49.336Z,100376.41
2022-08-12T11:17:34.918Z,100382.06
2022-08-12T11:19:31.031Z,100369.00
2022-08-12T11:21:56.894Z,100386.44
2022-08-12T11:23:57.777Z,100366.53
2022-08-12T11:26:06.951Z,100380.00
2022-08-12T11:28:09.957Z,100370.03
2022-08-12T11:30:31.407Z,100365.00
2022-08-12T11:32:38.889Z,100377.69
2022-08-12T11:34:53.637Z,100368.59
2022-08-12T11:37:04.802Z,100379.88
2022-08-12T11:39:07.624Z,100372.56
2022-08-12T11:41:14.685Z,100365.88
2022-08-12T11:43:23.516Z,100366.91
2022-08-12T11:45:30.245Z,100371.06
2022-08-12T11:47:55.510Z,100333.41
2022-08-12T11:49:59.166Z,100362.28
2022-08-12T11:55:02.709Z,100343.09
2022-08-12T11:58:45.146Z,100366.84
2022-08-12T12:14:07.444Z,100356.94
2022-08-12T12:16:10.920Z,100340.59
2022-08-12T12:25:12.916Z,100349.28
2022-08-12T12:28:40.695Z,100339.53
2022-08-12T12:32:53.439Z,100337.16
2022-08-12T12:36:30.282Z,100341.63
2022-08-12T12:43:42.795Z,100340.13
2022-08-12T12:46:54.808Z,100342.25
2022-08-12T12:49:06.853Z,100310.97
2022-08-12T12:52:19.875Z,100332.94
2022-08-12T13:09:22.300Z,100313.66
2022-08-12T13:12:53.174Z,100325.47
2022-08-12T13:19:25.070Z,100325.28
2022-08-12T13:38:02.817Z,100300.75
2022-08-12T13:40:07.188Z,100311.81
2022-08-12T13:45:11.670Z,100304.16
2022-08-12T13:47:19.687Z,100296.56
2022-08-12T13:49:54.893Z,100293.53
2022-08-12T13:53:16.669Z,100288.16
2022-08-12T13:56:39.147Z,100266.22
2022-08-12T13:59:11.805Z,100291.03
2022-08-12T14:01:14.563Z,100288.50
2022-08-12T14:08:21.304Z,100266.13
2022-08-12T14:33:51.291Z,100276.31
2022-08-12T14:36:37.041Z,100278.47
2022-08-12T14:52:16.161Z,100280.25
2022-08-12T14:56:59.369Z,100242.25
2022-08-12T15:10:02.272Z,100246.69
2022-08-12T15:18:55.183Z,100247.31
2022-08-12T15:22:15.155Z,100230.69
2022-08-12T15:31:21.178Z,100245.66
2022-08-12T15:34:30.821Z,100238.25
2022-08-12T15:36:53.859Z,100234.22
2022-08-12T15:38:58.519Z,100223.25
2022-08-12T15:41:01.723Z,100248.00
2022-08-12T15:43:09.815Z,100239.59
2022-08-12T15:45:23.530Z,100233.19
2022-08-12T15:48:16.987Z,100244.81
2022-08-12T15:50:29.032Z,100237.69
2022-08-12T15:52:31.679Z,100236.09
2022-08-12T15:54:50.658Z,100221.84
2022-08-12T15:57:33.458Z,100243.50
2022-08-12T16:02:50.596Z,100231.16
2022-08-12T16:04:55.112Z,100222.53
2022-08-12T16:07:30.935Z,100222.16
2022-08-12T16:09:56.758Z,100231.56
2022-08-12T16:12:06.053Z,100239.59
2022-08-12T16:23:55.190Z,100229.06
2022-08-12T16:26:14.747Z,100225.94
2022-08-12T16:28:18.369Z,100220.25
2022-08-12T16:30:31.456Z,100219.41
2022-08-12T16:32:35.572Z,100213.09
2022-08-12T16:36:58.805Z,100198.22
2022-08-12T16:39:18.418Z,100205.44
2022-08-12T16:42:18.308Z,100185.69
2022-08-12T16:45:22.988Z,100202.69
2022-08-12T16:53:59.313Z,100194.56
2022-08-12T16:56:37.198Z,100214.22
2022-08-12T17:08:29.056Z,100169.56
2022-08-12T17:09:34.358Z,100184.53
2022-08-12T17:13:10.017Z,100164.78
2022-08-12T17:15:50.296Z,100188.69
2022-08-12T17:18:42.859Z,100181.84
2022-08-12T17:20:51.438Z,100174.22
2022-08-12T17:22:54.397Z,100172.47
2022-08-12T17:25:29.935Z,100197.13
2022-08-12T17:27:34.210Z,100189.06
2022-08-12T17:30:02.969Z,100160.63
2022-08-12T17:32:07.727Z,100196.47
2022-08-12T17:34:17.484Z,100198.72
2022-08-12T17:36:22.427Z,100196.41
2022-08-12T17:38:28.251Z,100201.59
2022-08-12T17:40:42.329Z,100195.22
2022-08-12T17:42:47.634Z,100177.72
2022-08-12T17:44:50.271Z,100190.31
2022-08-12T17:46:55.469Z,100196.19
2022-08-12T17:48:59.731Z,100201.16
2022-08-12T17:51:04.448Z,100181.09
2022-08-12T17:53:20.940Z,100190.09
2022-08-12T17:55:40.910Z,100200.69
2022-08-12T17:57:46.767Z,100211.44
2022-08-12T17:59:55.057Z,100208.81
2022-08-12T18:01:58.128Z,100197.50
2022-08-12T18:04:21.249Z,100219.72
2022-08-12T18:06:27.742Z,100202.94
2022-08-12T18:08:30.487Z,100217.97
2022-08-12T18:10:36.557Z,100216.16
2022-08-12T18:12:50.993Z,100213.34
2022-08-12T18:15:26.866Z,100209.47
2022-08-12T18:17:41.081Z,100214.59
2022-08-12T18:20:08.331Z,100203.44
2022-08-12T18:22:43.264Z,100190.13
2022-08-12T18:25:00.820Z,100210.63
2022-08-12T18:27:30.353Z,100222.59
2022-08-12T18:29:44.346Z,100222.63
2022-08-12T18:31:59.827Z,100206.41
2022-08-12T18:34:09.458Z,100224.25
2022-08-12T18:36:22.743Z,100218.19
2022-08-12T18:38:27.302Z,100230.09
2022-08-12T18:40:31.490Z,100224.53
2022-08-12T18:42:35.446Z,100210.09
2022-08-12T18:44:38.160Z,100204.00
2022-08-12T18:46:48.862Z,100223.06
2022-08-12T18:49:18.300Z,100226.97
2022-08-12T18:51:45.683Z,100224.09
2022-08-12T18:54:06.261Z,100229.53
2022-08-12T18:56:33.805Z,100226.31
2022-08-12T18:58:53.181Z,100230.56
2022-08-12T19:01:05.299Z,100232.13
2022-08-12T19:03:23.640Z,100228.94
2022-08-12T19:05:53.070Z,100238.94
2022-08-12T19:08:02.192Z,100224.22
2022-08-12T19:10:08.746Z,100230.66
2022-08-12T19:12:20.245Z,100226.78
2022-08-12T19:14:33.847Z,100226.63
2022-08-12T19:24:02.486Z,100221.22
2022-08-12T19:26:44.865Z,100206.94
2022-08-12T19:30:07.218Z,100219.50
2022-08-12T19:32:39.419Z,100230.38
2022-08-12T19:36:06.884Z,100210.34
2022-08-12T19:38:27.159Z,100229.38
2022-08-12T19:40:59.262Z,100222.06
2022-08-12T19:43:20.159Z,100202.84
2022-08-12T19:45:43.720Z,100211.00
2022-08-12T19:51:09.205Z,100228.66
2022-08-12T19:53:30.108Z,100203.88
2022-08-12T19:55:57.728Z,100198.59
2022-08-12T19:58:04.828Z,100197.25
2022-08-12T20:00:10.246Z,100190.78
2022-08-12T20:02:17.626Z,100230.53
2022-08-12T20:04:19.931Z,100200.78
2022-08-12T20:06:24.447Z,100208.13
2022-08-12T20:08:36.366Z,100196.19
2022-08-12T20:10:45.696Z,100222.22
2022-08-12T20:13:17.399Z,100219.97
2022-08-12T20:15:26.574Z,100202.00
2022-08-12T20:17:51.508Z,100225.59
2022-08-12T20:20:19.410Z,100212.69
2022-08-12T20:22:36.298Z,100206.22
2022-08-12T20:24:50.927Z,100204.53
2022-08-12T20:27:02.028Z,100195.00
2022-08-12T20:34:25.955Z,100236.13
2022-08-12T20:36:41.207Z,100221.34
2022-08-12T20:39:02.454Z,100200.78
2022-08-12T20:41:05.286Z,100217.09
2022-08-12T20:43:38.052Z,100232.06
2022-08-12T20:46:02.829Z,100243.13
2022-08-12T20:48:11.694Z,100250.09
2022-08-12T20:50:38.496Z,100237.50
2022-08-12T20:52:55.576Z,100231.06
2022-08-12T20:55:15.325Z,100243.81
2022-08-12T20:57:38.280Z,100227.97
2022-08-12T21:02:30.324Z,100252.13
2022-08-12T21:07:13.467Z,100233.09
2022-08-12T21:09:22.127Z,100221.53
2022-08-12T21:11:28.066Z,100231.06
2022-08-12T21:13:38.787Z,100223.56
2022-08-12T21:18:50.471Z,100242.91
2022-08-12T21:21:03.753Z,100250.91
2022-08-12T21:23:07.446Z,100243.13
2022-08-12T21:25:14.639Z,100242.09
2022-08-12T21:27:19.386Z,100226.44
2022-08-12T21:29:23.634Z,100234.78
2022-08-12T21:32:36.574Z,100223.22
2022-08-12T21:34:41.015Z,100236.81
2022-08-12T21:37:13.234Z,100247.69
2022-08-12T21:39:37.117Z,100240.88
2022-08-12T21:47:37.767Z,100233.41
2022-08-12T21:49:55.040Z,100225.25
2022-08-12T21:51:58.435Z,100220.50
2022-08-12T21:54:07.847Z,100224.72
2022-08-12T21:56:12.114Z,100229.47
2022-08-12T21:58:43.803Z,100232.69
2022-08-12T22:00:47.045Z,100223.44
2022-08-12T22:02:49.224Z,100232.63
2022-08-12T22:04:52.925Z,100238.53
2022-08-12T22:06:59.149Z,100232.22
2022-08-12T22:09:02.774Z,100235.28
2022-08-12T22:11:06.738Z,100245.75
2022-08-12T22:14:06.925Z,100235.03
2022-08-12T22:15:33.049Z,100239.44
2022-08-12T22:17:50.334Z,100231.75
2022-08-12T22:20:01.935Z,100232.94
2022-08-12T22:22:06.433Z,100237.66
2022-08-12T22:26:29.266Z,100245.63
2022-08-12T22:28:45.638Z,100243.91
2022-08-12T22:37:44.962Z,100220.09
2022-08-12T22:39:49.758Z,100205.06
2022-08-12T22:41:58.631Z,100230.25
2022-08-12T22:44:04.337Z,100220.72
2022-08-12T22:46:09.036Z,100211.50
2022-08-12T22:48:17.659Z,100225.03
2022-08-12T22:50:32.633Z,100215.88
2022-08-12T22:52:37.178Z,100227.41
2022-08-12T22:57:49.816Z,100221.44
2022-08-12T22:59:59.028Z,100216.88
2022-08-12T23:02:02.518Z,100208.03
2022-08-12T23:04:11.294Z,100211.78
2022-08-12T23:06:21.982Z,100206.50
2022-08-12T23:08:30.087Z,100215.97
2022-08-12T23:10:42.820Z,100197.59
2022-08-12T23:12:47.454Z,100189.75
2022-08-12T23:14:51.626Z,100200.44
2022-08-12T23:16:55.026Z,100198.38
2022-08-12T23:19:09.527Z,100190.72
2022-08-12T23:21:19.284Z,100189.34
2022-08-12T23:23:25.738Z,100171.16
2022-08-12T23:25:32.571Z,100176.56
2022-08-12T23:27:55.876Z,100176.88
2022-08-12T23:30:18.021Z,100173.47
2022-08-12T23:32:36.664Z,100182.28
2022-08-12T23:34:39.307Z,100178.19
2022-08-12T23:36:50.128Z,100171.94
2022-08-12T23:38:58.665Z,100172.97
2022-08-12T23:41:04.446Z,100169.84
2022-08-12T23:43:06.587Z,100162.34
2022-08-12T23:45:20.492Z,100171.56
2022-08-12T23:47:33.918Z,100162.22
2022-08-12T23:49:56.998Z,100174.28
2022-08-12T23:52:04.812Z,100170.88
2022-08-12T23:54:08.977Z,100150.63
2022-08-12T23:56:12.704Z,100170.69
2022-08-12T23:58:21.824Z,100168.47
